Time;durP1;ratioP1;P1;durP2;ratioP2;P2;SDS_P1;SDS_P2;PMS_P1;PMS_P2;Temp;Humidity;BMP_temperature;BMP_pressure;BME280_temperature;BME280_humidity;BME280_pressure;Samples;Min_cycle;Max_cycle;Signal;HPM_P1;HPM_P2
2023/02/16 00:01:16;;;;;;;28.73;19.13;;;;;;;;;;5037617;28;20994;-76
2023/02/16 00:03:42;;;;;;;29.80;17.97;;;;;;;;;;5043637;28;21031;-74
2023/02/16 00:06:13;;;;;;;29.67;19.53;;;;;;;;;;5040923;28;20457;-75
2023/02/16 00:08:39;;;;;;;30.00;19.20;;;;;;;;;;5045574;28;20432;-75
2023/02/16 00:13:57;;;;;;;33.17;18.50;;;;;;;;;;5043531;28;20436;-74
2023/02/16 00:16:23;;;;;;;32.10;21.10;;;;;;;;;;5041730;28;20454;-75
2023/02/16 00:18:50;;;;;;;30.60;19.23;;;;;;;;;;5045011;28;20437;-74
2023/02/16 00:21:17;;;;;;;30.87;19.90;;;;;;;;;;5041318;28;20448;-75
2023/02/16 00:23:51;;;;;;;27.63;18.03;;;;;;;;;;5045025;28;20481;-74
2023/02/16 00:26:24;;;;;;;32.10;20.73;;;;;;;;;;5039969;28;21205;-75
2023/02/16 00:28:54;;;;;;;33.83;21.13;;;;;;;;;;5044200;28;21283;-75
2023/02/16 00:31:21;;;;;;;26.80;18.60;;;;;;;;;;5022083;28;20821;-74
2023/02/16 00:33:48;;;;;;;28.80;19.10;;;;;;;;;;5044622;28;20461;-75
2023/02/16 00:36:14;;;;;;;29.50;19.13;;;;;;;;;;5040548;28;20490;-74
2023/02/16 00:38:40;;;;;;;29.33;18.57;;;;;;;;;;5027235;28;20797;-74
2023/02/16 00:41:49;;;;;;;32.63;18.67;;;;;;;;;;5040459;28;20452;-74
2023/02/16 00:43:57;;;;;;;29.50;19.30;;;;;;;;;;5042186;28;20543;-74
2023/02/16 00:46:23;;;;;;;34.00;19.50;;;;;;;;;;5041626;28;20937;-74
2023/02/16 00:48:49;;;;;;;28.00;19.63;;;;;;;;;;5044046;28;20429;-74
2023/02/16 00:51:15;;;;;;;34.40;21.00;;;;;;;;;;5039939;28;20437;-75
2023/02/16 00:53:41;;;;;;;36.73;19.00;;;;;;;;;;5044697;28;20448;-75
2023/02/16 00:56:08;;;;;;;26.83;18.30;;;;;;;;;;5039693;28;20541;-74
2023/02/16 00:58:34;;;;;;;29.73;18.83;;;;;;;;;;5042982;28;20954;-74
2023/02/16 01:01:05;;;;;;;31.90;19.70;;;;;;;;;;5040415;28;20572;-74
2023/02/16 01:03:31;;;;;;;24.57;18.07;;;;;;;;;;5043882;28;20441;-76
2023/02/16 01:11:27;;;;;;;31.20;21.10;;;;;;;;;;5035141;28;21326;-75
2023/02/16 01:13:53;;;;;;;32.73;19.90;;;;;;;;;;5044920;28;20988;-74
2023/02/16 01:16:21;;;;;;;29.47;19.83;;;;;;;;;;5040966;28;20465;-74
2023/02/16 01:18:47;;;;;;;31.80;19.80;;;;;;;;;;5029850;28;20445;-74
2023/02/16 01:21:13;;;;;;;28.53;18.73;;;;;;;;;;5048771;28;20438;-75
2023/02/16 01:23:39;;;;;;;32.73;19.67;;;;;;;;;;5045248;28;20773;-74
2023/02/16 01:26:06;;;;;;;29.70;20.20;;;;;;;;;;5022293;28;20563;-75
2023/02/16 01:28:34;;;;;;;31.80;18.67;;;;;;;;;;5043909;28;20564;-76
2023/02/16 01:31:00;;;;;;;30.23;18.90;;;;;;;;;;5040740;28;20449;-75
2023/02/16 01:33:26;;;;;;;28.90;18.47;;;;;;;;;;5043461;28;20449;-75
2023/02/16 01:35:53;;;;;;;29.63;19.67;;;;;;;;;;5042211;28;20595;-73
2023/02/16 01:38:20;;;;;;;28.60;19.30;;;;;;;;;;5043483;28;20540;-76
2023/02/16 01:41:05;;;;;;;28.30;18.27;;;;;;;;;;5039617;28;20448;-74
2023/02/16 01:43:47;;;;;;;28.53;19.70;;;;;;;;;;5043481;28;20959;-75
2023/02/16 01:46:16;;;;;;;31.47;21.37;;;;;;;;;;5039282;28;20457;-76
2023/02/16 01:48:43;;;;;;;31.40;18.37;;;;;;;;;;5043583;28;20992;-74
2023/02/16 01:51:27;;;;;;;26.87;17.93;;;;;;;;;;5038174;28;20492;-74
2023/02/16 01:53:55;;;;;;;32.93;20.93;;;;;;;;;;5042762;28;21040;-75
2023/02/16 01:56:29;;;;;;;29.83;18.03;;;;;;;;;;5039181;28;21244;-75
2023/02/16 01:58:59;;;;;;;31.97;20.57;;;;;;;;;;5042598;28;20429;-74
2023/02/16 02:01:48;;;;;;;33.33;21.13;;;;;;;;;;5038844;28;20490;-74
2023/02/16 02:07:24;;;;;;;28.43;18.93;;;;;;;;;;5042632;28;20801;-74
2023/02/16 02:10:16;;;;;;;30.93;19.70;;;;;;;;;;5034263;28;20453;-75
2023/02/16 02:12:48;;;;;;;35.40;20.40;;;;;;;;;;5020456;28;20921;-74
2023/02/16 02:15:16;;;;;;;27.17;19.10;;;;;;;;;;5039330;28;20442;-74
2023/02/16 02:17:42;;;;;;;33.83;19.03;;;;;;;;;;5042969;28;20437;-74
2023/02/16 02:23:40;;;;;;;32.13;20.57;;;;;;;;;;5042451;28;20863;-76
2023/02/16 02:26:15;;;;;;;29.00;20.37;;;;;;;;;;5037799;28;20461;-75
2023/02/16 02:28:47;;;;;;;28.93;18.90;;;;;;;;;;5024101;28;21231;-74
2023/02/16 02:31:24;;;;;;;29.00;20.57;;;;;;;;;;5038438;28;20448;-74
2023/02/16 02:33:50;;;;;;;26.42;19.25;;;;;;;;;;5042438;28;20455;-75
2023/02/16 02:36:28;;;;;;;26.80;17.73;;;;;;;;;;5038234;28;20879;-75
2023/02/16 02:39:13;;;;;;;31.53;20.03;;;;;;;;;;5042662;28;20526;-75
2023/02/16 02:42:03;;;;;;;31.20;19.23;;;;;;;;;;5041207;28;20552;-75
2023/02/16 02:44:30;;;;;;;25.97;18.20;;;;;;;;;;5019949;28;21042;-75
2023/02/16 02:46:56;;;;;;;28.13;19.17;;;;;;;;;;5041705;28;20473;-74
2023/02/16 02:49:22;;;;;;;26.87;20.07;;;;;;;;;;5014005;28;20827;-74
2023/02/16 02:51:52;;;;;;;28.60;16.87;;;;;;;;;;5041498;28;21148;-75
2023/02/16 03:02:39;;;;;;;26.37;19.00;;;;;;;;;;5040209;28;20412;-75
2023/02/16 03:05:07;;;;;;;27.87;17.53;;;;;;;;;;5038355;28;20450;-75
2023/02/16 03:07:46;;;;;;;33.20;17.60;;;;;;;;;;5042034;28;20435;-75
2023/02/16 03:13:12;;;;;;;28.40;19.00;;;;;;;;;;5040699;28;20489;-74
2023/02/16 03:15:39;;;;;;;30.03;18.73;;;;;;;;;;5019547;28;20432;-75
2023/02/16 03:29:23;;;;;;;30.10;20.00;;;;;;;;;;5032557;28;20523;-74
2023/02/16 03:31:50;;;;;;;35.07;20.10;;;;;;;;;;5032720;28;20433;-74
2023/02/16 03:34:17;;;;;;;29.97;18.60;;;;;;;;;;5032505;28;21213;-75
2023/02/16 03:36:45;;;;;;;28.83;20.27;;;;;;;;;;5034207;28;20428;-75
2023/02/16 03:39:12;;;;;;;32.53;18.63;;;;;;;;;;5032649;28;20528;-74
2023/02/16 03:41:39;;;;;;;26.60;18.87;;;;;;;;;;5040807;28;20425;-74
2023/02/16 03:44:05;;;;;;;33.53;19.77;;;;;;;;;;5035342;28;20490;-74
2023/02/16 03:46:31;;;;;;;36.17;19.90;;;;;;;;;;5035025;28;21217;-75
2023/02/16 03:48:57;;;;;;;27.43;19.20;;;;;;;;;;5038043;28;20465;-74
2023/02/16 03:51:23;;;;;;;35.97;18.80;;;;;;;;;;5027022;28;20473;-74
2023/02/16 03:53:50;;;;;;;26.37;18.50;;;;;;;;;;5035933;28;20453;-75
2023/02/16 03:56:17;;;;;;;31.23;18.37;;;;;;;;;;5034369;28;20457;-75
2023/02/16 03:58:43;;;;;;;27.10;16.63;;;;;;;;;;5036393;28;20450;-75
2023/02/16 04:01:09;;;;;;;27.93;20.00;;;;;;;;;;5025654;28;20948;-75
2023/02/16 04:03:35;;;;;;;31.27;18.00;;;;;;;;;;5028265;28;20447;-74
2023/02/16 04:06:01;;;;;;;38.10;18.50;;;;;;;;;;5029839;28;20595;-74
2023/02/16 04:08:27;;;;;;;31.53;17.07;;;;;;;;;;5036455;28;20521;-74
2023/02/16 04:10:55;;;;;;;28.30;18.40;;;;;;;;;;5030869;28;20542;-74
2023/02/16 04:13:21;;;;;;;28.93;19.57;;;;;;;;;;5033895;28;20442;-74
2023/02/16 04:15:48;;;;;;;30.33;18.27;;;;;;;;;;5034089;28;20448;-74
2023/02/16 04:18:14;;;;;;;29.03;19.27;;;;;;;;;;5039011;28;20484;-74
2023/02/16 04:20:40;;;;;;;33.53;19.53;;;;;;;;;;5035587;28;20838;-75
2023/02/16 04:23:06;;;;;;;29.30;19.20;;;;;;;;;;5040271;28;20491;-75
2023/02/16 04:25:32;;;;;;;32.83;21.20;;;;;;;;;;5035164;28;20471;-74
2023/02/16 04:27:59;;;;;;;31.97;20.80;;;;;;;;;;5038011;28;20618;-75
2023/02/16 04:30:26;;;;;;;34.30;21.60;;;;;;;;;;5030654;28;20465;-75
2023/02/16 04:32:53;;;;;;;35.23;20.80;;;;;;;;;;5039421;28;20437;-75
2023/02/16 04:35:19;;;;;;;35.90;20.37;;;;;;;;;;5035936;28;20732;-75
2023/02/16 04:37:45;;;;;;;29.53;18.67;;;;;;;;;;5036455;28;20452;-76
2023/02/16 04:40:12;;;;;;;30.80;19.20;;;;;;;;;;5034368;28;20464;-76
2023/02/16 04:42:39;;;;;;;28.70;20.57;;;;;;;;;;5036035;28;20558;-75
2023/02/16 04:45:05;;;;;;;27.00;18.20;;;;;;;;;;5034531;28;20831;-74
2023/02/16 04:47:31;;;;;;;27.87;19.57;;;;;;;;;;5036328;28;20920;-75
2023/02/16 04:49:57;;;;;;;30.73;20.40;;;;;;;;;;5033477;28;20561;-75
2023/02/16 04:52:23;;;;;;;28.67;18.83;;;;;;;;;;5038052;28;20443;-75
2023/02/16 04:54:49;;;;;;;29.20;18.20;;;;;;;;;;5035217;28;20481;-75
2023/02/16 04:57:16;;;;;;;24.20;17.60;;;;;;;;;;5038911;28;21214;-74
2023/02/16 04:59:42;;;;;;;34.63;20.47;;;;;;;;;;5036181;28;20532;-75
2023/02/16 05:02:08;;;;;;;32.97;18.50;;;;;;;;;;5037093;28;20507;-77
2023/02/16 05:04:34;;;;;;;27.37;18.83;;;;;;;;;;5036560;28;21024;-75
2023/02/16 05:07:00;;;;;;;34.53;21.43;;;;;;;;;;5035990;28;20465;-75
2023/02/16 05:09:26;;;;;;;31.07;20.47;;;;;;;;;;5031276;28;20438;-76
2023/02/16 05:14:46;;;;;;;26.63;19.03;;;;;;;;;;5034161;28;20540;-73
2023/02/16 05:17:14;;;;;;;32.93;20.43;;;;;;;;;;5037139;28;20433;-74
2023/02/16 05:19:41;;;;;;;30.80;20.07;;;;;;;;;;5029826;28;21010;-75
2023/02/16 05:22:07;;;;;;;29.60;20.90;;;;;;;;;;5036439;28;20424;-75
2023/02/16 05:24:33;;;;;;;32.50;20.77;;;;;;;;;;5034145;28;20975;-75
2023/02/16 05:27:00;;;;;;;29.20;18.33;;;;;;;;;;5032110;28;20501;-75
2023/02/16 05:29:26;;;;;;;36.13;20.37;;;;;;;;;;5036262;28;20540;-75
2023/02/16 05:31:52;;;;;;;32.80;18.43;;;;;;;;;;5035976;28;20529;-75
2023/02/16 05:34:18;;;;;;;30.67;19.17;;;;;;;;;;5020641;28;20458;-76
2023/02/16 05:36:44;;;;;;;36.40;19.33;;;;;;;;;;5039023;28;22286;-74
2023/02/16 05:39:10;;;;;;;39.40;20.43;;;;;;;;;;5032097;28;21075;-74
2023/02/16 05:41:36;;;;;;;25.83;18.37;;;;;;;;;;5033756;28;20478;-74
2023/02/16 05:44:03;;;;;;;29.70;18.63;;;;;;;;;;5033689;28;20456;-75
2023/02/16 05:46:31;;;;;;;25.23;17.83;;;;;;;;;;5035765;28;20920;-75
2023/02/16 05:48:57;;;;;;;28.13;19.40;;;;;;;;;;5034327;28;20461;-74
2023/02/16 05:51:24;;;;;;;28.30;17.30;;;;;;;;;;5030158;28;20536;-75
2023/02/16 05:53:50;;;;;;;26.47;17.90;;;;;;;;;;5032265;28;20461;-74
2023/02/16 05:56:16;;;;;;;37.93;20.30;;;;;;;;;;5033286;28;20563;-75
2023/02/16 05:58:42;;;;;;;29.63;19.20;;;;;;;;;;5031699;28;20449;-75
2023/02/16 06:01:08;;;;;;;32.53;19.40;;;;;;;;;;5029481;28;20542;-75
2023/02/16 06:03:35;;;;;;;31.70;18.30;;;;;;;;;;5033015;28;20457;-75
2023/02/16 06:06:01;;;;;;;29.87;19.60;;;;;;;;;;5032627;28;20462;-75
2023/02/16 06:08:28;;;;;;;23.43;17.70;;;;;;;;;;5030508;28;20583;-74
2023/02/16 06:10:54;;;;;;;28.23;17.97;;;;;;;;;;5026914;28;20470;-74
2023/02/16 06:13:21;;;;;;;31.33;18.43;;;;;;;;;;5034262;28;20502;-75
2023/02/16 06:15:47;;;;;;;27.70;16.47;;;;;;;;;;5032778;28;20465;-75
2023/02/16 06:18:13;;;;;;;25.73;18.00;;;;;;;;;;5032067;28;20435;-76
2023/02/16 06:20:40;;;;;;;27.63;18.10;;;;;;;;;;5035917;28;20446;-75
2023/02/16 06:23:07;;;;;;;24.10;18.70;;;;;;;;;;5033674;28;21028;-75
2023/02/16 06:25:33;;;;;;;29.63;18.37;;;;;;;;;;5030749;28;20449;-75
2023/02/16 06:27:59;;;;;;;25.13;17.60;;;;;;;;;;5033108;28;20944;-74
2023/02/16 06:30:25;;;;;;;22.97;16.90;;;;;;;;;;5011723;28;20922;-75
2023/02/16 06:32:51;;;;;;;26.63;18.63;;;;;;;;;;5030898;28;20639;-74
2023/02/16 06:35:17;;;;;;;24.80;17.97;;;;;;;;;;5034477;28;20596;-75
2023/02/16 06:37:44;;;;;;;25.53;17.57;;;;;;;;;;5032132;28;20844;-74
2023/02/16 06:40:13;;;;;;;27.67;17.90;;;;;;;;;;5036150;28;20456;-75
2023/02/16 06:42:39;;;;;;;28.90;16.57;;;;;;;;;;5015483;28;20880;-75
2023/02/16 06:45:05;;;;;;;30.90;18.77;;;;;;;;;;5031639;28;20437;-76
2023/02/16 06:47:31;;;;;;;30.03;18.70;;;;;;;;;;5028001;28;21080;-74
2023/02/16 06:49:57;;;;;;;32.30;19.03;;;;;;;;;;5028869;28;21235;-75
2023/02/16 06:52:24;;;;;;;30.97;17.90;;;;;;;;;;5032606;28;20484;-75
2023/02/16 06:54:50;;;;;;;24.07;16.33;;;;;;;;;;5031386;28;21236;-73
2023/02/16 06:57:16;;;;;;;25.73;17.67;;;;;;;;;;5032036;28;20466;-75
2023/02/16 06:59:43;;;;;;;20.47;15.13;;;;;;;;;;5032232;28;20871;-75
2023/02/16 07:02:09;;;;;;;25.30;16.67;;;;;;;;;;5016171;28;20910;-76
2023/02/16 07:04:35;;;;;;;34.93;18.33;;;;;;;;;;5029063;28;20552;-75
2023/02/16 07:07:01;;;;;;;21.80;16.00;;;;;;;;;;5019041;28;20470;-75
2023/02/16 07:09:27;;;;;;;24.20;15.30;;;;;;;;;;5028037;28;20568;-74
2023/02/16 07:11:53;;;;;;;30.47;18.07;;;;;;;;;;5024780;28;20441;-76
2023/02/16 07:14:20;;;;;;;25.30;16.27;;;;;;;;;;5021720;28;20619;-74
2023/02/16 07:16:46;;;;;;;26.87;15.80;;;;;;;;;;5026833;28;20855;-75
2023/02/16 07:19:12;;;;;;;32.53;18.43;;;;;;;;;;5030120;28;20452;-75
2023/02/16 07:21:38;;;;;;;30.70;17.57;;;;;;;;;;5025584;28;20446;-75
2023/02/16 07:24:04;;;;;;;26.00;16.33;;;;;;;;;;5027527;28;21966;-75
2023/02/16 07:26:30;;;;;;;20.37;14.83;;;;;;;;;;5027017;28;20554;-76
2023/02/16 07:28:56;;;;;;;22.13;14.27;;;;;;;;;;5034817;28;20557;-74
2023/02/16 07:31:25;;;;;;;27.77;16.80;;;;;;;;;;5036909;28;20965;-76
2023/02/16 07:33:51;;;;;;;30.37;14.23;;;;;;;;;;5041658;28;20457;-75
2023/02/16 07:36:17;;;;;;;25.30;17.33;;;;;;;;;;5036117;28;20956;-75
2023/02/16 07:38:43;;;;;;;20.87;15.70;;;;;;;;;;5008044;28;20433;-74
2023/02/16 07:41:10;;;;;;;25.10;16.60;;;;;;;;;;5032707;28;20445;-75
2023/02/16 07:43:36;;;;;;;24.53;13.97;;;;;;;;;;5014163;28;20421;-74
2023/02/16 07:46:02;;;;;;;20.27;13.80;;;;;;;;;;5028089;23;20726;-73
2023/02/16 07:49:07;;;;;;;;;;;;;;;;;;;;;
2023/02/16 07:51:44;;;;;;;19.20;13.30;;;;;;;;;;5037950;28;20448;-74
2023/02/16 07:54:15;;;;;;;24.77;15.20;;;;;;;;;;5022616;28;20492;-75
2023/02/16 07:56:47;;;;;;;33.57;17.03;;;;;;;;;;5033370;28;22182;-78
2023/02/16 07:59:15;;;;;;;22.53;13.73;;;;;;;;;;5035739;28;22002;-74
2023/02/16 08:01:48;;;;;;;22.00;14.27;;;;;;;;;;5031318;28;20584;-78
2023/02/16 08:04:14;;;;;;;24.30;18.03;;;;;;;;;;5020935;28;20774;-75
2023/02/16 08:06:40;;;;;;;22.17;12.83;;;;;;;;;;5029573;28;20493;-75
2023/02/16 08:09:06;;;;;;;22.57;14.30;;;;;;;;;;5018256;28;20446;-75
2023/02/16 08:11:32;;;;;;;15.10;9.73;;;;;;;;;;5026072;28;20499;-75
2023/02/16 08:13:59;;;;;;;22.70;15.90;;;;;;;;;;5033898;28;20441;-76
2023/02/16 08:16:28;;;;;;;28.90;16.17;;;;;;;;;;5024668;28;20464;-75
2023/02/16 08:19:08;;;;;;;23.60;16.83;;;;;;;;;;5040465;28;20441;-75
2023/02/16 08:21:35;;;;;;;30.23;17.87;;;;;;;;;;5028556;28;20437;-75
2023/02/16 08:24:02;;;;;;;22.40;15.10;;;;;;;;;;5030542;28;20452;-76
2023/02/16 08:26:32;;;;;;;29.43;17.13;;;;;;;;;;5080877;23;20895;-75
2023/02/16 08:28:58;;;;;;;23.10;14.20;;;;;;;;;;5014155;28;20438;-74
2023/02/16 08:31:27;;;;;;;19.60;15.63;;;;;;;;;;5028279;28;20711;-75
2023/02/16 08:33:53;;;;;;;28.17;16.23;;;;;;;;;;5032833;28;21000;-75
2023/02/16 08:36:22;;;;;;;22.90;16.10;;;;;;;;;;5026999;28;20975;-75
2023/02/16 08:38:51;;;;;;;26.10;15.20;;;;;;;;;;5034024;28;20437;-75
2023/02/16 08:41:25;;;;;;;20.80;14.67;;;;;;;;;;5029194;28;20459;-76
2023/02/16 08:43:52;;;;;;;20.83;15.27;;;;;;;;;;5029901;28;20441;-76
2023/02/16 08:46:18;;;;;;;16.67;12.03;;;;;;;;;;5039964;28;20476;-76
2023/02/16 08:48:44;;;;;;;31.40;15.57;;;;;;;;;;5045562;28;20472;-76
2023/02/16 08:51:17;;;;;;;27.73;15.50;;;;;;;;;;5045171;28;20513;-75
2023/02/16 08:53:44;;;;;;;25.73;17.97;;;;;;;;;;5036067;28;20422;-77
2023/02/16 08:56:10;;;;;;;23.27;14.70;;;;;;;;;;5038221;28;20930;-78
2023/02/16 08:58:36;;;;;;;22.90;16.10;;;;;;;;;;5036200;28;20599;-76
2023/02/16 09:01:10;;;;;;;23.40;15.43;;;;;;;;;;5039937;28;20418;-78
2023/02/16 09:03:37;;;;;;;19.60;14.20;;;;;;;;;;5028632;28;20532;-77
2023/02/16 09:06:04;;;;;;;22.10;13.47;;;;;;;;;;5044579;28;21251;-77
2023/02/16 09:08:36;;;;;;;25.17;15.10;;;;;;;;;;5040039;28;20500;-78
2023/02/16 09:11:06;;;;;;;19.80;14.60;;;;;;;;;;5027915;28;20821;-77
2023/02/16 09:13:34;;;;;;;23.20;16.23;;;;;;;;;;5022652;28;20438;-77
2023/02/16 09:16:04;;;;;;;25.37;15.10;;;;;;;;;;5043715;28;20426;-76
2023/02/16 09:18:31;;;;;;;22.00;14.00;;;;;;;;;;5029144;28;20493;-77
2023/02/16 09:20:58;;;;;;;19.97;11.37;;;;;;;;;;5023848;28;20701;-76
2023/02/16 09:23:38;;;;;;;19.10;15.53;;;;;;;;;;5041005;28;20438;-77
2023/02/16 09:26:08;;;;;;;21.60;15.47;;;;;;;;;;5016246;28;20481;-77
2023/02/16 09:28:35;;;;;;;22.90;14.30;;;;;;;;;;5041076;28;20455;-77
2023/02/16 09:31:01;;;;;;;21.03;12.30;;;;;;;;;;5022786;28;20429;-75
2023/02/16 09:33:27;;;;;;;17.97;13.13;;;;;;;;;;5047933;28;20521;-76
2023/02/16 09:35:53;;;;;;;18.63;14.17;;;;;;;;;;5044812;28;20434;-76
2023/02/16 09:38:20;;;;;;;20.73;11.97;;;;;;;;;;5017922;28;20453;-76
2023/02/16 09:40:47;;;;;;;16.93;11.70;;;;;;;;;;5021061;28;20429;-77
2023/02/16 09:43:36;;;;;;;20.17;14.03;;;;;;;;;;5047799;28;21182;-76
2023/02/16 09:46:03;;;;;;;20.60;15.63;;;;;;;;;;5023200;28;20811;-76
2023/02/16 09:48:34;;;;;;;25.13;14.10;;;;;;;;;;5018902;28;20430;-77
2023/02/16 09:51:00;;;;;;;10.57;8.50;;;;;;;;;;5037505;28;20752;-76
2023/02/16 09:53:32;;;;;;;19.07;15.03;;;;;;;;;;5044628;28;20440;-77
2023/02/16 09:56:01;;;;;;;20.53;15.40;;;;;;;;;;5035609;28;20952;-79
2023/02/16 09:58:32;;;;;;;22.53;13.13;;;;;;;;;;5030454;28;20441;-77
2023/02/16 10:01:17;;;;;;;26.03;16.50;;;;;;;;;;5053354;28;20445;-75
2023/02/16 10:03:44;;;;;;;21.93;15.43;;;;;;;;;;5053801;28;20413;-77
2023/02/16 10:06:13;;;;;;;21.17;14.33;;;;;;;;;;5048224;28;20465;-75
2023/02/16 10:08:41;;;;;;;20.07;15.10;;;;;;;;;;5046677;28;20430;-76
2023/02/16 10:11:36;;;;;;;25.53;15.47;;;;;;;;;;5039112;28;20429;-76
2023/02/16 10:14:03;;;;;;;18.90;14.10;;;;;;;;;;5034061;28;20418;-75
2023/02/16 10:16:37;;;;;;;24.43;16.50;;;;;;;;;;5045058;28;20471;-76
2023/02/16 10:19:07;;;;;;;15.30;9.53;;;;;;;;;;5021906;28;20445;-76
2023/02/16 10:21:33;;;;;;;28.63;17.30;;;;;;;;;;5044886;28;20430;-76
2023/02/16 10:24:04;;;;;;;20.77;15.93;;;;;;;;;;5044222;28;20425;-76
2023/02/16 10:26:32;;;;;;;40.57;17.57;;;;;;;;;;5045425;28;20492;-77
2023/02/16 10:29:00;;;;;;;22.30;15.80;;;;;;;;;;5040017;28;20526;-75
2023/02/16 10:31:36;;;;;;;24.87;16.27;;;;;;;;;;5046821;28;20592;-77
2023/02/16 10:34:21;;;;;;;23.63;16.50;;;;;;;;;;5033497;28;20469;-78
2023/02/16 10:36:56;;;;;;;19.60;15.40;;;;;;;;;;5037076;28;20903;-76
2023/02/16 10:39:29;;;;;;;19.40;15.73;;;;;;;;;;5024178;28;20515;-75
2023/02/16 10:42:00;;;;;;;16.90;14.40;;;;;;;;;;5019022;28;20552;-75
2023/02/16 10:44:39;;;;;;;17.80;14.07;;;;;;;;;;5007700;28;20422;-76
2023/02/16 10:47:09;;;;;;;23.87;16.63;;;;;;;;;;5017094;28;20862;-76
2023/02/16 10:49:36;;;;;;;23.27;16.10;;;;;;;;;;5033288;28;20429;-75
2023/02/16 10:52:03;;;;;;;22.20;14.90;;;;;;;;;;5023464;28;20424;-74
2023/02/16 10:54:30;;;;;;;31.80;16.33;;;;;;;;;;5047295;28;20431;-75
2023/02/16 10:56:59;;;;;;;18.10;13.77;;;;;;;;;;5025170;28;20465;-76
2023/02/16 10:59:42;;;;;;;18.90;14.43;;;;;;;;;;5039534;28;20429;-74
2023/02/16 11:02:23;;;;;;;22.00;16.53;;;;;;;;;;5039797;28;20758;-75
2023/02/16 11:04:53;;;;;;;23.33;15.60;;;;;;;;;;5045541;28;20493;-76
2023/02/16 11:07:21;;;;;;;20.13;15.90;;;;;;;;;;5042871;28;20492;-76
2023/02/16 11:09:52;;;;;;;18.40;13.50;;;;;;;;;;5037892;28;20445;-76
2023/02/16 11:12:25;;;;;;;22.77;17.07;;;;;;;;;;5024622;28;20414;-77
2023/02/16 11:14:52;;;;;;;20.47;14.80;;;;;;;;;;5040300;28;20785;-75
2023/02/16 11:17:20;;;;;;;21.93;16.70;;;;;;;;;;5041138;28;20917;-76
2023/02/16 11:20:08;;;;;;;20.97;16.00;;;;;;;;;;5049072;28;20828;-75
2023/02/16 11:22:38;;;;;;;25.43;16.70;;;;;;;;;;5037373;28;20402;-77
2023/02/16 11:25:19;;;;;;;23.20;16.80;;;;;;;;;;5048210;28;20799;-78
2023/02/16 11:27:52;;;;;;;25.07;17.27;;;;;;;;;;5044463;28;20839;-76
2023/02/16 11:30:23;;;;;;;13.67;12.23;;;;;;;;;;5024220;28;20441;-75
2023/02/16 11:32:52;;;;;;;22.10;15.33;;;;;;;;;;5036620;28;20975;-74
2023/02/16 11:35:18;;;;;;;21.70;16.20;;;;;;;;;;5049924;28;20438;-76
2023/02/16 11:37:44;;;;;;;25.70;18.60;;;;;;;;;;5043752;28;20468;-74
2023/02/16 11:40:19;;;;;;;23.50;15.13;;;;;;;;;;5044672;28;20444;-74
2023/02/16 11:42:46;;;;;;;24.67;16.90;;;;;;;;;;5037549;28;20883;-74
2023/02/16 11:45:33;;;;;;;21.80;16.90;;;;;;;;;;5041200;28;20443;-75
2023/02/16 11:47:59;;;;;;;26.77;17.57;;;;;;;;;;5039130;28;20492;-76
2023/02/16 11:50:27;;;;;;;23.17;16.17;;;;;;;;;;5046678;28;20536;-75
2023/02/16 11:52:56;;;;;;;22.80;17.60;;;;;;;;;;5044386;28;20489;-76
2023/02/16 11:55:25;;;;;;;31.57;18.53;;;;;;;;;;5050736;28;20776;-79
2023/02/16 11:57:52;;;;;;;27.27;18.60;;;;;;;;;;5045006;28;20436;-76
2023/02/16 12:00:22;;;;;;;24.40;17.47;;;;;;;;;;5052642;28;20484;-76
2023/02/16 12:02:59;;;;;;;24.67;15.90;;;;;;;;;;5026630;28;20566;-74
2023/02/16 12:05:25;;;;;;;27.80;16.97;;;;;;;;;;5060074;28;20855;-75
2023/02/16 12:08:03;;;;;;;24.40;18.77;;;;;;;;;;5045449;28;20520;-75
2023/02/16 12:10:29;;;;;;;22.00;17.57;;;;;;;;;;5077572;28;20413;-77
2023/02/16 12:13:15;;;;;;;25.70;17.20;;;;;;;;;;5047499;28;20437;-75
2023/02/16 12:15:47;;;;;;;23.47;17.23;;;;;;;;;;5044556;28;20547;-76
2023/02/16 12:18:27;;;;;;;28.67;19.67;;;;;;;;;;5027884;28;20517;-76
2023/02/16 12:20:55;;;;;;;31.90;18.63;;;;;;;;;;5037231;28;20466;-76
2023/02/16 12:23:21;;;;;;;24.90;19.23;;;;;;;;;;5046356;28;20465;-76
2023/02/16 12:25:47;;;;;;;29.00;19.00;;;;;;;;;;5049638;28;20480;-74
2023/02/16 12:28:27;;;;;;;28.63;17.40;;;;;;;;;;5034399;28;20415;-76
2023/02/16 12:30:57;;;;;;;27.77;18.50;;;;;;;;;;5042742;28;20430;-75
2023/02/16 12:33:26;;;;;;;22.70;18.33;;;;;;;;;;5049698;28;20525;-76
2023/02/16 12:36:11;;;;;;;31.43;19.60;;;;;;;;;;5047926;28;20431;-76
2023/02/16 12:38:46;;;;;;;26.77;18.60;;;;;;;;;;5036780;28;20441;-77
2023/02/16 12:41:21;;;;;;;27.37;19.00;;;;;;;;;;5046177;28;20429;-77
2023/02/16 12:43:53;;;;;;;24.33;18.00;;;;;;;;;;5049653;28;20472;-75
2023/02/16 12:46:38;;;;;;;27.03;18.90;;;;;;;;;;5021668;28;21049;-75
2023/02/16 12:49:05;;;;;;;24.63;18.07;;;;;;;;;;5035957;28;20432;-76
2023/02/16 12:51:36;;;;;;;29.37;18.87;;;;;;;;;;5039352;28;20473;-76
2023/02/16 12:54:14;;;;;;;28.07;18.63;;;;;;;;;;5033985;28;20439;-76
2023/02/16 12:56:47;;;;;;;23.37;19.43;;;;;;;;;;5044848;28;20421;-75
2023/02/16 12:59:22;;;;;;;23.80;19.03;;;;;;;;;;5036460;28;20538;-76
2023/02/16 13:01:50;;;;;;;27.43;19.60;;;;;;;;;;5043921;28;20416;-77
2023/02/16 13:04:20;;;;;;;33.23;19.77;;;;;;;;;;5038701;28;21026;-76
2023/02/16 13:06:49;;;;;;;26.37;19.33;;;;;;;;;;5048195;28;20461;-75
2023/02/16 13:09:22;;;;;;;27.10;19.30;;;;;;;;;;5042193;28;20433;-76
2023/02/16 13:12:01;;;;;;;29.93;19.50;;;;;;;;;;5035177;28;20925;-75
2023/02/16 13:14:29;;;;;;;31.90;21.70;;;;;;;;;;5014425;28;20441;-76
2023/02/16 13:16:58;;;;;;;29.47;18.50;;;;;;;;;;5050210;28;20406;-75
2023/02/16 13:19:24;;;;;;;22.20;18.73;;;;;;;;;;5012478;28;20504;-76
2023/02/16 13:21:53;;;;;;;27.00;17.67;;;;;;;;;;5021532;28;20428;-76
2023/02/16 13:24:19;;;;;;;29.10;19.47;;;;;;;;;;5016078;28;21007;-75
2023/02/16 13:26:56;;;;;;;26.07;19.10;;;;;;;;;;5051611;28;20466;-75
2023/02/16 13:29:28;;;;;;;27.70;19.73;;;;;;;;;;5053892;28;20432;-76
2023/02/16 13:32:13;;;;;;;23.13;19.30;;;;;;;;;;5046128;28;21002;-78
2023/02/16 13:34:42;;;;;;;28.57;19.73;;;;;;;;;;5018969;28;20776;-77
2023/02/16 13:37:20;;;;;;;32.40;20.00;;;;;;;;;;5045565;28;20776;-76
2023/02/16 13:40:19;;;;;;;32.40;19.70;;;;;;;;;;5040385;28;20456;-76
2023/02/16 13:42:59;;;;;;;22.90;18.97;;;;;;;;;;5004641;28;20967;-77
2023/02/16 13:45:27;;;;;;;25.10;18.30;;;;;;;;;;5042937;28;20413;-77
2023/02/16 13:47:55;;;;;;;28.93;20.30;;;;;;;;;;5039281;28;20446;-77
2023/02/16 13:50:21;;;;;;;26.03;19.93;;;;;;;;;;5013850;28;20414;-77
2023/02/16 13:52:48;;;;;;;26.87;20.47;;;;;;;;;;5044566;28;20445;-77
2023/02/16 13:55:26;;;;;;;26.20;19.60;;;;;;;;;;5032472;28;20977;-78
2023/02/16 13:57:52;;;;;;;25.43;19.37;;;;;;;;;;5045058;28;20508;-76
2023/02/16 14:00:34;;;;;;;28.33;19.47;;;;;;;;;;5041163;28;20932;-76
2023/02/16 14:03:00;;;;;;;27.30;20.47;;;;;;;;;;5039355;28;20460;-76
2023/02/16 14:05:29;;;;;;;32.90;21.87;;;;;;;;;;5038578;28;20425;-76
2023/02/16 14:08:08;;;;;;;28.50;20.10;;;;;;;;;;5018438;28;21018;-76
2023/02/16 14:10:54;;;;;;;28.53;20.43;;;;;;;;;;5033955;28;20421;-75
2023/02/16 14:13:28;;;;;;;25.50;20.00;;;;;;;;;;5040284;28;20459;-77
2023/02/16 14:15:55;;;;;;;32.40;20.20;;;;;;;;;;5046976;28;20433;-76
2023/02/16 14:18:21;;;;;;;33.83;21.40;;;;;;;;;;5041418;28;20437;-79
2023/02/16 14:20:59;;;;;;;25.87;19.70;;;;;;;;;;5055946;28;20498;-76
2023/02/16 14:23:35;;;;;;;31.30;21.00;;;;;;;;;;5036122;28;20437;-78
2023/02/16 14:26:05;;;;;;;25.70;20.60;;;;;;;;;;5024529;28;20494;-77
2023/02/16 14:28:31;;;;;;;28.30;21.00;;;;;;;;;;5013898;28;20458;-78
2023/02/16 14:30:58;;;;;;;30.80;21.70;;;;;;;;;;5018557;28;20490;-76
2023/02/16 14:33:33;;;;;;;30.90;20.80;;;;;;;;;;5025094;28;20742;-76
2023/02/16 14:35:59;;;;;;;29.13;21.33;;;;;;;;;;5023604;28;20782;-77
2023/02/16 14:38:31;;;;;;;27.47;19.10;;;;;;;;;;5018026;28;20540;-75
2023/02/16 14:41:12;;;;;;;33.67;19.20;;;;;;;;;;5018125;28;20481;-76
2023/02/16 14:43:41;;;;;;;29.77;20.17;;;;;;;;;;5015572;28;20425;-77
2023/02/16 14:46:07;;;;;;;26.77;19.83;;;;;;;;;;5004226;28;20873;-75
2023/02/16 14:48:33;;;;;;;29.27;20.23;;;;;;;;;;5016283;28;20430;-77
2023/02/16 14:50:59;;;;;;;28.43;20.60;;;;;;;;;;5022684;28;20425;-76
2023/02/16 14:53:25;;;;;;;26.97;19.97;;;;;;;;;;5010718;28;20436;-76
2023/02/16 14:56:08;;;;;;;31.20;21.77;;;;;;;;;;4992016;28;20794;-77
2023/02/16 14:58:38;;;;;;;41.50;21.17;;;;;;;;;;5013295;28;20590;-76
2023/02/16 15:01:10;;;;;;;30.60;20.10;;;;;;;;;;5006595;28;20496;-75
2023/02/16 15:03:44;;;;;;;26.80;20.33;;;;;;;;;;5010659;28;20422;-75
2023/02/16 15:06:17;;;;;;;29.83;19.03;;;;;;;;;;5020172;28;20549;-76
2023/02/16 15:08:47;;;;;;;25.07;17.70;;;;;;;;;;5010384;28;20989;-77
2023/02/16 15:11:13;;;;;;;25.13;19.10;;;;;;;;;;5020116;28;20434;-75
2023/02/16 15:13:39;;;;;;;20.37;17.30;;;;;;;;;;5009032;28;20526;-78